sensor_id;sensor_type;location;lat;lon;timestamp;temperature;humidity
18002;DHT22;9126;48.160;17.130;2022-08-30T00:02:08;23.70;53.50
18002;DHT22;9126;48.160;17.130;2022-08-30T00:04:35;23.60;53.60
18002;DHT22;9126;48.160;17.130;2022-08-30T00:07:02;23.60;53.70
18002;DHT22;9126;48.160;17.130;2022-08-30T00:09:30;23.60;53.80
18002;DHT22;9126;48.160;17.130;2022-08-30T00:11:57;23.60;53.90
18002;DHT22;9126;48.160;17.130;2022-08-30T00:14:24;23.60;53.90
18002;DHT22;9126;48.160;17.130;2022-08-30T00:16:52;23.60;54.00
18002;DHT22;9126;48.160;17.130;2022-08-30T00:19:20;23.50;54.00
18002;DHT22;9126;48.160;17.130;2022-08-30T00:21:47;23.50;54.10
18002;DHT22;9126;48.160;17.130;2022-08-30T00:24:14;23.40;54.20
18002;DHT22;9126;48.160;17.130;2022-08-30T00:26:41;23.40;54.30
18002;DHT22;9126;48.160;17.130;2022-08-30T00:29:08;23.30;54.40
18002;DHT22;9126;48.160;17.130;2022-08-30T00:31:36;23.30;54.50
18002;DHT22;9126;48.160;17.130;2022-08-30T00:34:03;23.30;54.60
18002;DHT22;9126;48.160;17.130;2022-08-30T00:36:32;23.20;54.50
18002;DHT22;9126;48.160;17.130;2022-08-30T00:38:59;23.20;54.70
18002;DHT22;9126;48.160;17.130;2022-08-30T00:41:26;23.20;54.70
18002;DHT22;9126;48.160;17.130;2022-08-30T00:43:53;23.20;54.70
18002;DHT22;9126;48.160;17.130;2022-08-30T00:46:20;23.10;54.70
18002;DHT22;9126;48.160;17.130;2022-08-30T00:48:48;23.10;54.80
18002;DHT22;9126;48.160;17.130;2022-08-30T00:51:18;23.10;54.70
18002;DHT22;9126;48.160;17.130;2022-08-30T00:53:51;23.00;54.70
18002;DHT22;9126;48.160;17.130;2022-08-30T00:56:20;23.00;54.80
18002;DHT22;9126;48.160;17.130;2022-08-30T00:58:54;22.90;54.80
18002;DHT22;9126;48.160;17.130;2022-08-30T01:01:21;22.90;54.80
18002;DHT22;9126;48.160;17.130;2022-08-30T01:03:49;22.80;54.90
18002;DHT22;9126;48.160;17.130;2022-08-30T01:06:18;22.70;55.10
18002;DHT22;9126;48.160;17.130;2022-08-30T01:08:48;22.60;55.30
18002;DHT22;9126;48.160;17.130;2022-08-30T01:11:17;22.60;55.40
18002;DHT22;9126;48.160;17.130;2022-08-30T01:13:46;22.50;55.60
18002;DHT22;9126;48.160;17.130;2022-08-30T01:16:14;22.40;55.70
18002;DHT22;9126;48.160;17.130;2022-08-30T01:18:42;22.40;55.90
18002;DHT22;9126;48.160;17.130;2022-08-30T01:21:14;22.40;56.00
18002;DHT22;9126;48.160;17.130;2022-08-30T01:23:46;22.40;56.10
18002;DHT22;9126;48.160;17.130;2022-08-30T01:26:15;22.40;56.10
18002;DHT22;9126;48.160;17.130;2022-08-30T01:28:45;22.40;56.20
18002;DHT22;9126;48.160;17.130;2022-08-30T01:31:13;22.40;56.40
18002;DHT22;9126;48.160;17.130;2022-08-30T01:33:40;22.40;56.40
18002;DHT22;9126;48.160;17.130;2022-08-30T01:36:11;22.40;56.50
18002;DHT22;9126;48.160;17.130;2022-08-30T01:38:41;22.40;56.60
18002;DHT22;9126;48.160;17.130;2022-08-30T01:41:12;22.30;56.70
18002;DHT22;9126;48.160;17.130;2022-08-30T01:43:41;22.30;56.90
18002;DHT22;9126;48.160;17.130;2022-08-30T01:46:09;22.30;57.00
18002;DHT22;9126;48.160;17.130;2022-08-30T01:48:37;22.30;57.00
18002;DHT22;9126;48.160;17.130;2022-08-30T01:51:05;22.30;57.10
18002;DHT22;9126;48.160;17.130;2022-08-30T01:53:35;22.30;57.10
18002;DHT22;9126;48.160;17.130;2022-08-30T01:56:05;22.30;57.20
18002;DHT22;9126;48.160;17.130;2022-08-30T01:58:34;22.20;57.20
18002;DHT22;9126;48.160;17.130;2022-08-30T02:01:01;22.20;57.40
18002;DHT22;9126;48.160;17.130;2022-08-30T02:03:29;22.20;57.50
18002;DHT22;9126;48.160;17.130;2022-08-30T02:06:02;22.20;57.50
18002;DHT22;9126;48.160;17.130;2022-08-30T02:08:30;22.10;57.50
18002;DHT22;9126;48.160;17.130;2022-08-30T02:10:57;22.10;57.70
18002;DHT22;9126;48.160;17.130;2022-08-30T02:13:25;22.10;57.70
18002;DHT22;9126;48.160;17.130;2022-08-30T02:15:54;22.10;57.80
18002;DHT22;9126;48.160;17.130;2022-08-30T02:18:22;22.00;57.90
18002;DHT22;9126;48.160;17.130;2022-08-30T02:20:49;22.00;57.90
18002;DHT22;9126;48.160;17.130;2022-08-30T02:23:16;22.00;58.00
18002;DHT22;9126;48.160;17.130;2022-08-30T02:25:45;22.00;58.10
18002;DHT22;9126;48.160;17.130;2022-08-30T02:28:13;22.00;58.20
18002;DHT22;9126;48.160;17.130;2022-08-30T02:30:40;22.00;58.30
18002;DHT22;9126;48.160;17.130;2022-08-30T02:33:10;22.00;58.30
18002;DHT22;9126;48.160;17.130;2022-08-30T02:35:37;22.00;58.30
18002;DHT22;9126;48.160;17.130;2022-08-30T02:38:04;22.00;58.40
18002;DHT22;9126;48.160;17.130;2022-08-30T02:40:32;22.00;58.40
18002;DHT22;9126;48.160;17.130;2022-08-30T02:42:59;22.00;58.50
18002;DHT22;9126;48.160;17.130;2022-08-30T02:45:26;21.90;58.50
18002;DHT22;9126;48.160;17.130;2022-08-30T02:47:54;21.90;58.60
18002;DHT22;9126;48.160;17.130;2022-08-30T02:50:23;21.90;58.60
18002;DHT22;9126;48.160;17.130;2022-08-30T02:52:50;21.90;58.60
18002;DHT22;9126;48.160;17.130;2022-08-30T02:55:17;21.90;58.60
18002;DHT22;9126;48.160;17.130;2022-08-30T02:57:44;21.90;58.60
18002;DHT22;9126;48.160;17.130;2022-08-30T03:00:15;21.90;58.70
18002;DHT22;9126;48.160;17.130;2022-08-30T03:02:43;21.90;58.70
18002;DHT22;9126;48.160;17.130;2022-08-30T03:05:12;21.90;58.70
18002;DHT22;9126;48.160;17.130;2022-08-30T03:07:41;21.90;58.80
18002;DHT22;9126;48.160;17.130;2022-08-30T03:10:09;21.90;58.70
18002;DHT22;9126;48.160;17.130;2022-08-30T03:12:37;21.90;58.80
18002;DHT22;9126;48.160;17.130;2022-08-30T03:15:05;21.90;58.80
18002;DHT22;9126;48.160;17.130;2022-08-30T03:17:33;21.90;58.80
18002;DHT22;9126;48.160;17.130;2022-08-30T03:20:01;21.90;58.90
18002;DHT22;9126;48.160;17.130;2022-08-30T03:22:28;21.80;58.80
18002;DHT22;9126;48.160;17.130;2022-08-30T03:24:57;21.80;58.90
18002;DHT22;9126;48.160;17.130;2022-08-30T03:27:26;21.70;59.00
18002;DHT22;9126;48.160;17.130;2022-08-30T03:29:53;21.70;59.20
18002;DHT22;9126;48.160;17.130;2022-08-30T03:32:21;21.70;59.20
18002;DHT22;9126;48.160;17.130;2022-08-30T03:34:48;21.70;59.20
18002;DHT22;9126;48.160;17.130;2022-08-30T03:37:16;21.70;59.30
18002;DHT22;9126;48.160;17.130;2022-08-30T03:39:45;21.70;59.30
18002;DHT22;9126;48.160;17.130;2022-08-30T03:42:13;21.70;59.40
18002;DHT22;9126;48.160;17.130;2022-08-30T03:44:41;21.70;59.40
18002;DHT22;9126;48.160;17.130;2022-08-30T03:47:08;21.70;59.50
18002;DHT22;9126;48.160;17.130;2022-08-30T03:49:35;21.70;59.60
18002;DHT22;9126;48.160;17.130;2022-08-30T03:52:02;21.70;59.60
18002;DHT22;9126;48.160;17.130;2022-08-30T03:54:30;21.60;59.60
18002;DHT22;9126;48.160;17.130;2022-08-30T03:56:57;21.60;60.00
18002;DHT22;9126;48.160;17.130;2022-08-30T03:59:25;21.60;59.80
18002;DHT22;9126;48.160;17.130;2022-08-30T04:01:52;21.50;59.90
18002;DHT22;9126;48.160;17.130;2022-08-30T04:04:19;21.50;59.90
18002;DHT22;9126;48.160;17.130;2022-08-30T04:06:47;21.50;60.00
18002;DHT22;9126;48.160;17.130;2022-08-30T04:09:14;21.50;60.00
18002;DHT22;9126;48.160;17.130;2022-08-30T04:11:41;21.50;60.00
18002;DHT22;9126;48.160;17.130;2022-08-30T04:14:09;21.50;60.00
18002;DHT22;9126;48.160;17.130;2022-08-30T04:16:37;21.50;60.20
18002;DHT22;9126;48.160;17.130;2022-08-30T04:19:04;21.50;60.20
18002;DHT22;9126;48.160;17.130;2022-08-30T04:21:31;21.50;60.30
18002;DHT22;9126;48.160;17.130;2022-08-30T04:23:58;21.60;60.30
18002;DHT22;9126;48.160;17.130;2022-08-30T04:26:26;21.60;60.30
18002;DHT22;9126;48.160;17.130;2022-08-30T04:28:53;21.60;60.40
18002;DHT22;9126;48.160;17.130;2022-08-30T04:31:21;21.60;60.40
18002;DHT22;9126;48.160;17.130;2022-08-30T04:33:49;21.60;60.40
18002;DHT22;9126;48.160;17.130;2022-08-30T04:36:16;21.70;60.40
18002;DHT22;9126;48.160;17.130;2022-08-30T04:38:43;21.70;60.30
18002;DHT22;9126;48.160;17.130;2022-08-30T04:41:13;21.70;60.30
18002;DHT22;9126;48.160;17.130;2022-08-30T04:43:41;21.70;60.30
18002;DHT22;9126;48.160;17.130;2022-08-30T04:46:08;21.80;60.30
18002;DHT22;9126;48.160;17.130;2022-08-30T04:48:36;21.80;60.20
18002;DHT22;9126;48.160;17.130;2022-08-30T04:51:07;21.80;60.20
18002;DHT22;9126;48.160;17.130;2022-08-30T04:53:36;21.70;60.20
18002;DHT22;9126;48.160;17.130;2022-08-30T04:56:06;21.70;60.40
18002;DHT22;9126;48.160;17.130;2022-08-30T04:58:34;21.70;60.40
18002;DHT22;9126;48.160;17.130;2022-08-30T05:01:01;21.70;60.40
18002;DHT22;9126;48.160;17.130;2022-08-30T05:03:28;21.70;60.50
18002;DHT22;9126;48.160;17.130;2022-08-30T05:05:55;21.70;60.50
18002;DHT22;9126;48.160;17.130;2022-08-30T05:08:23;21.80;60.40
18002;DHT22;9126;48.160;17.130;2022-08-30T05:10:51;21.90;60.30
18002;DHT22;9126;48.160;17.130;2022-08-30T05:13:21;22.00;60.20
18002;DHT22;9126;48.160;17.130;2022-08-30T05:15:48;22.00;60.10
18002;DHT22;9126;48.160;17.130;2022-08-30T05:18:15;22.10;60.00
18002;DHT22;9126;48.160;17.130;2022-08-30T05:20:42;22.10;59.90
18002;DHT22;9126;48.160;17.130;2022-08-30T05:23:10;22.20;59.80
18002;DHT22;9126;48.160;17.130;2022-08-30T05:25:42;22.30;59.80
18002;DHT22;9126;48.160;17.130;2022-08-30T05:28:09;22.30;59.70
18002;DHT22;9126;48.160;17.130;2022-08-30T05:30:36;22.40;59.70
18002;DHT22;9126;48.160;17.130;2022-08-30T05:33:04;22.40;59.60
18002;DHT22;9126;48.160;17.130;2022-08-30T05:35:31;22.40;59.50
18002;DHT22;9126;48.160;17.130;2022-08-30T05:37:58;22.40;59.40
18002;DHT22;9126;48.160;17.130;2022-08-30T05:40:25;22.40;59.30
18002;DHT22;9126;48.160;17.130;2022-08-30T05:42:53;22.50;59.30
18002;DHT22;9126;48.160;17.130;2022-08-30T05:45:21;22.50;59.30
18002;DHT22;9126;48.160;17.130;2022-08-30T05:47:48;22.50;59.70
18002;DHT22;9126;48.160;17.130;2022-08-30T05:50:15;22.60;59.20
18002;DHT22;9126;48.160;17.130;2022-08-30T05:52:42;22.60;59.10
18002;DHT22;9126;48.160;17.130;2022-08-30T05:55:11;22.60;59.00
18002;DHT22;9126;48.160;17.130;2022-08-30T05:57:39;22.70;59.00
18002;DHT22;9126;48.160;17.130;2022-08-30T06:00:10;22.70;59.00
18002;DHT22;9126;48.160;17.130;2022-08-30T06:02:38;22.80;58.90
18002;DHT22;9126;48.160;17.130;2022-08-30T06:05:06;22.80;58.80
18002;DHT22;9126;48.160;17.130;2022-08-30T06:07:33;22.80;58.80
18002;DHT22;9126;48.160;17.130;2022-08-30T06:10:01;22.80;58.70
18002;DHT22;9126;48.160;17.130;2022-08-30T06:12:28;22.90;58.70
18002;DHT22;9126;48.160;17.130;2022-08-30T06:14:55;22.90;58.60
18002;DHT22;9126;48.160;17.130;2022-08-30T06:17:26;22.90;58.60
18002;DHT22;9126;48.160;17.130;2022-08-30T06:19:53;23.00;58.60
18002;DHT22;9126;48.160;17.130;2022-08-30T06:22:21;23.00;58.40
18002;DHT22;9126;48.160;17.130;2022-08-30T06:24:48;23.00;58.50
18002;DHT22;9126;48.160;17.130;2022-08-30T06:27:15;23.10;58.50
18002;DHT22;9126;48.160;17.130;2022-08-30T06:29:42;23.20;58.40
18002;DHT22;9126;48.160;17.130;2022-08-30T06:32:09;23.30;58.30
18002;DHT22;9126;48.160;17.130;2022-08-30T06:34:38;23.30;58.20
18002;DHT22;9126;48.160;17.130;2022-08-30T06:37:05;23.30;58.10
18002;DHT22;9126;48.160;17.130;2022-08-30T06:39:32;23.30;58.10
18002;DHT22;9126;48.160;17.130;2022-08-30T06:41:59;23.40;58.10
18002;DHT22;9126;48.160;17.130;2022-08-30T06:44:26;23.50;58.00
18002;DHT22;9126;48.160;17.130;2022-08-30T06:46:54;23.50;58.00
18002;DHT22;9126;48.160;17.130;2022-08-30T06:49:21;23.50;57.90
18002;DHT22;9126;48.160;17.130;2022-08-30T06:51:49;23.60;57.90
18002;DHT22;9126;48.160;17.130;2022-08-30T06:54:16;23.60;57.90
18002;DHT22;9126;48.160;17.130;2022-08-30T06:56:43;23.70;57.80
18002;DHT22;9126;48.160;17.130;2022-08-30T06:59:11;23.80;57.70
18002;DHT22;9126;48.160;17.130;2022-08-30T07:01:38;23.80;57.40
18002;DHT22;9126;48.160;17.130;2022-08-30T07:04:05;23.80;57.20
18002;DHT22;9126;48.160;17.130;2022-08-30T07:06:32;23.90;57.10
18002;DHT22;9126;48.160;17.130;2022-08-30T07:09:01;23.90;57.10
18002;DHT22;9126;48.160;17.130;2022-08-30T07:11:33;24.00;57.00
18002;DHT22;9126;48.160;17.130;2022-08-30T07:14:00;24.00;57.00
18002;DHT22;9126;48.160;17.130;2022-08-30T07:16:27;24.00;57.00
18002;DHT22;9126;48.160;17.130;2022-08-30T07:18:56;24.00;57.00
18002;DHT22;9126;48.160;17.130;2022-08-30T07:21:26;24.00;57.20
18002;DHT22;9126;48.160;17.130;2022-08-30T07:23:55;24.10;57.30
18002;DHT22;9126;48.160;17.130;2022-08-30T07:26:26;24.10;57.20
18002;DHT22;9126;48.160;17.130;2022-08-30T07:28:54;24.10;57.10
18002;DHT22;9126;48.160;17.130;2022-08-30T07:31:21;24.20;57.10
18002;DHT22;9126;48.160;17.130;2022-08-30T07:33:48;24.30;57.00
18002;DHT22;9126;48.160;17.130;2022-08-30T07:36:15;24.30;56.90
18002;DHT22;9126;48.160;17.130;2022-08-30T07:38:44;24.30;56.80
18002;DHT22;9126;48.160;17.130;2022-08-30T07:41:16;24.30;56.80
18002;DHT22;9126;48.160;17.130;2022-08-30T07:43:46;24.40;56.80
18002;DHT22;9126;48.160;17.130;2022-08-30T07:46:13;24.40;56.90
18002;DHT22;9126;48.160;17.130;2022-08-30T07:48:40;24.40;56.80
18002;DHT22;9126;48.160;17.130;2022-08-30T07:51:12;24.50;56.80
18002;DHT22;9126;48.160;17.130;2022-08-30T07:53:40;24.60;56.60
18002;DHT22;9126;48.160;17.130;2022-08-30T07:56:08;24.70;56.60
18002;DHT22;9126;48.160;17.130;2022-08-30T07:58:36;24.70;56.50
18002;DHT22;9126;48.160;17.130;2022-08-30T08:01:08;24.70;56.40
18002;DHT22;9126;48.160;17.130;2022-08-30T08:03:36;24.80;56.20
18002;DHT22;9126;48.160;17.130;2022-08-30T08:06:05;24.90;56.10
18002;DHT22;9126;48.160;17.130;2022-08-30T08:08:33;25.00;55.90
18002;DHT22;9126;48.160;17.130;2022-08-30T08:11:05;25.10;55.70
18002;DHT22;9126;48.160;17.130;2022-08-30T08:13:32;25.30;55.60
18002;DHT22;9126;48.160;17.130;2022-08-30T08:16:00;25.30;55.30
18002;DHT22;9126;48.160;17.130;2022-08-30T08:18:31;25.40;55.10
18002;DHT22;9126;48.160;17.130;2022-08-30T08:20:58;25.40;54.90
18002;DHT22;9126;48.160;17.130;2022-08-30T08:23:25;25.50;54.70
18002;DHT22;9126;48.160;17.130;2022-08-30T08:25:53;25.60;54.50
18002;DHT22;9126;48.160;17.130;2022-08-30T08:28:20;25.60;54.30
18002;DHT22;9126;48.160;17.130;2022-08-30T08:30:47;25.70;54.10
18002;DHT22;9126;48.160;17.130;2022-08-30T08:33:16;25.70;53.90
18002;DHT22;9126;48.160;17.130;2022-08-30T08:35:48;25.70;53.70
18002;DHT22;9126;48.160;17.130;2022-08-30T08:38:19;25.80;53.60
18002;DHT22;9126;48.160;17.130;2022-08-30T08:41:00;25.80;53.40
18002;DHT22;9126;48.160;17.130;2022-08-30T08:43:32;25.90;53.20
18002;DHT22;9126;48.160;17.130;2022-08-30T08:46:03;26.00;53.00
18002;DHT22;9126;48.160;17.130;2022-08-30T08:48:39;26.00;52.50
18002;DHT22;9126;48.160;17.130;2022-08-30T08:51:10;26.00;52.00
18002;DHT22;9126;48.160;17.130;2022-08-30T08:54:03;25.90;51.80
18002;DHT22;9126;48.160;17.130;2022-08-30T08:56:36;26.00;52.00
18002;DHT22;9126;48.160;17.130;2022-08-30T08:59:45;26.00;51.80
18002;DHT22;9126;48.160;17.130;2022-08-30T09:02:19;26.00;51.50
18002;DHT22;9126;48.160;17.130;2022-08-30T09:04:53;26.00;51.40
18002;DHT22;9126;48.160;17.130;2022-08-30T09:07:24;26.00;51.30
18002;DHT22;9126;48.160;17.130;2022-08-30T09:09:53;26.10;51.10
18002;DHT22;9126;48.160;17.130;2022-08-30T09:12:23;26.10;51.00
18002;DHT22;9126;48.160;17.130;2022-08-30T09:15:03;26.10;50.70
18002;DHT22;9126;48.160;17.130;2022-08-30T09:17:56;26.10;50.50
18002;DHT22;9126;48.160;17.130;2022-08-30T09:20:32;26.20;50.30
18002;DHT22;9126;48.160;17.130;2022-08-30T09:23:21;26.20;50.10
18002;DHT22;9126;48.160;17.130;2022-08-30T09:26:03;26.40;50.00
18002;DHT22;9126;48.160;17.130;2022-08-30T09:28:44;26.50;49.80
18002;DHT22;9126;48.160;17.130;2022-08-30T09:31:19;26.50;49.40
18002;DHT22;9126;48.160;17.130;2022-08-30T09:33:59;26.60;49.20
18002;DHT22;9126;48.160;17.130;2022-08-30T09:36:41;26.60;49.00
18002;DHT22;9126;48.160;17.130;2022-08-30T09:39:25;26.60;48.70
18002;DHT22;9126;48.160;17.130;2022-08-30T09:42:14;26.70;48.60
18002;DHT22;9126;48.160;17.130;2022-08-30T09:44:48;26.70;48.20
18002;DHT22;9126;48.160;17.130;2022-08-30T09:47:29;26.70;48.10
18002;DHT22;9126;48.160;17.130;2022-08-30T09:50:03;26.70;47.70
18002;DHT22;9126;48.160;17.130;2022-08-30T09:52:51;26.70;47.70
18002;DHT22;9126;48.160;17.130;2022-08-30T09:55:35;26.70;47.40
18002;DHT22;9126;48.160;17.130;2022-08-30T09:58:08;26.60;47.20
18002;DHT22;9126;48.160;17.130;2022-08-30T10:00:39;26.40;47.20
18002;DHT22;9126;48.160;17.130;2022-08-30T10:03:24;26.50;47.20
18002;DHT22;9126;48.160;17.130;2022-08-30T10:06:05;26.40;47.20
18002;DHT22;9126;48.160;17.130;2022-08-30T10:08:48;26.40;47.10
18002;DHT22;9126;48.160;17.130;2022-08-30T10:11:25;26.40;46.90
18002;DHT22;9126;48.160;17.130;2022-08-30T10:14:02;26.40;46.80
18002;DHT22;9126;48.160;17.130;2022-08-30T10:16:42;26.60;46.60
18002;DHT22;9126;48.160;17.130;2022-08-30T10:19:23;26.70;46.40
18002;DHT22;9126;48.160;17.130;2022-08-30T10:21:59;26.70;45.70
18002;DHT22;9126;48.160;17.130;2022-08-30T10:24:33;26.60;45.40
18002;DHT22;9126;48.160;17.130;2022-08-30T10:27:06;26.80;45.50
18002;DHT22;9126;48.160;17.130;2022-08-30T10:29:40;26.80;45.20
18002;DHT22;9126;48.160;17.130;2022-08-30T10:32:15;26.90;45.10
18002;DHT22;9126;48.160;17.130;2022-08-30T10:34:48;26.90;44.90
18002;DHT22;9126;48.160;17.130;2022-08-30T10:37:23;27.00;44.60
18002;DHT22;9126;48.160;17.130;2022-08-30T10:39:52;27.00;44.30
18002;DHT22;9126;48.160;17.130;2022-08-30T10:42:24;27.10;43.80
18002;DHT22;9126;48.160;17.130;2022-08-30T10:44:55;27.10;43.20
18002;DHT22;9126;48.160;17.130;2022-08-30T10:47:34;27.30;42.90
18002;DHT22;9126;48.160;17.130;2022-08-30T10:50:09;27.30;42.50
18002;DHT22;9126;48.160;17.130;2022-08-30T10:52:43;27.30;42.10
18002;DHT22;9126;48.160;17.130;2022-08-30T10:55:16;27.40;41.90
18002;DHT22;9126;48.160;17.130;2022-08-30T10:57:50;27.40;41.60
18002;DHT22;9126;48.160;17.130;2022-08-30T11:00:24;27.40;41.50
18002;DHT22;9126;48.160;17.130;2022-08-30T11:03:27;27.40;41.20
18002;DHT22;9126;48.160;17.130;2022-08-30T11:06:14;27.40;41.10
18002;DHT22;9126;48.160;17.130;2022-08-30T11:09:17;27.30;40.70
18002;DHT22;9126;48.160;17.130;2022-08-30T11:12:00;27.30;39.80
18002;DHT22;9126;48.160;17.130;2022-08-30T11:14:32;27.30;39.30
18002;DHT22;9126;48.160;17.130;2022-08-30T11:17:00;27.40;38.90
18002;DHT22;9126;48.160;17.130;2022-08-30T11:19:35;27.40;38.60
18002;DHT22;9126;48.160;17.130;2022-08-30T11:22:12;27.30;38.40
18002;DHT22;9126;48.160;17.130;2022-08-30T11:25:05;27.40;38.70
18002;DHT22;9126;48.160;17.130;2022-08-30T11:27:54;27.40;38.90
18002;DHT22;9126;48.160;17.130;2022-08-30T11:30:48;27.50;39.30
18002;DHT22;9126;48.160;17.130;2022-08-30T11:33:46;27.60;39.40
18002;DHT22;9126;48.160;17.130;2022-08-30T11:39:50;27.60;38.40
18002;DHT22;9126;48.160;17.130;2022-08-30T11:42:27;27.50;38.40
18002;DHT22;9126;48.160;17.130;2022-08-30T11:48:03;27.60;39.30
18002;DHT22;9126;48.160;17.130;2022-08-30T11:50:35;27.70;39.40
18002;DHT22;9126;48.160;17.130;2022-08-30T11:53:10;27.80;39.20
18002;DHT22;9126;48.160;17.130;2022-08-30T11:55:54;28.00;38.80
18002;DHT22;9126;48.160;17.130;2022-08-30T11:58:30;28.00;38.00
18002;DHT22;9126;48.160;17.130;2022-08-30T12:01:32;28.00;37.70
18002;DHT22;9126;48.160;17.130;2022-08-30T12:04:06;28.00;37.30
18002;DHT22;9126;48.160;17.130;2022-08-30T12:06:52;28.10;37.00
18002;DHT22;9126;48.160;17.130;2022-08-30T12:12:51;28.10;35.80
18002;DHT22;9126;48.160;17.130;2022-08-30T12:18:32;28.10;35.60
18002;DHT22;9126;48.160;17.130;2022-08-30T12:21:13;28.10;36.00
18002;DHT22;9126;48.160;17.130;2022-08-30T12:23:51;28.20;36.10
18002;DHT22;9126;48.160;17.130;2022-08-30T12:26:30;28.20;35.90
18002;DHT22;9126;48.160;17.130;2022-08-30T12:29:09;28.20;35.70
18002;DHT22;9126;48.160;17.130;2022-08-30T12:31:39;28.20;35.30
18002;DHT22;9126;48.160;17.130;2022-08-30T12:34:07;28.20;35.10
18002;DHT22;9126;48.160;17.130;2022-08-30T12:36:39;28.30;35.10
18002;DHT22;9126;48.160;17.130;2022-08-30T12:39:09;28.40;35.00
18002;DHT22;9126;48.160;17.130;2022-08-30T12:41:37;28.50;35.10
18002;DHT22;9126;48.160;17.130;2022-08-30T12:44:06;28.50;35.70
18002;DHT22;9126;48.160;17.130;2022-08-30T12:46:36;28.60;35.80
18002;DHT22;9126;48.160;17.130;2022-08-30T12:49:03;28.50;34.90
18002;DHT22;9126;48.160;17.130;2022-08-30T12:51:39;28.50;35.30
18002;DHT22;9126;48.160;17.130;2022-08-30T12:54:14;28.40;34.40
18002;DHT22;9126;48.160;17.130;2022-08-30T12:56:50;28.30;34.10
18002;DHT22;9126;48.160;17.130;2022-08-30T12:59:51;28.40;34.20
18002;DHT22;9126;48.160;17.130;2022-08-30T13:02:21;28.40;34.00
18002;DHT22;9126;48.160;17.130;2022-08-30T13:04:50;28.50;34.10
18002;DHT22;9126;48.160;17.130;2022-08-30T13:07:32;28.40;34.10
18002;DHT22;9126;48.160;17.130;2022-08-30T13:10:04;28.40;34.00
18002;DHT22;9126;48.160;17.130;2022-08-30T13:12:32;28.40;33.70
18002;DHT22;9126;48.160;17.130;2022-08-30T13:15:16;28.60;34.10
18002;DHT22;9126;48.160;17.130;2022-08-30T13:17:44;28.70;33.00
18002;DHT22;9126;48.160;17.130;2022-08-30T13:20:24;28.80;32.60
18002;DHT22;9126;48.160;17.130;2022-08-30T13:23:04;28.70;32.00
18002;DHT22;9126;48.160;17.130;2022-08-30T13:25:33;28.80;31.90
18002;DHT22;9126;48.160;17.130;2022-08-30T13:28:01;29.10;32.00
18002;DHT22;9126;48.160;17.130;2022-08-30T13:30:29;29.30;31.80
18002;DHT22;9126;48.160;17.130;2022-08-30T13:32:57;29.50;31.50
18002;DHT22;9126;48.160;17.130;2022-08-30T13:35:26;29.60;31.10
18002;DHT22;9126;48.160;17.130;2022-08-30T13:37:54;29.60;31.40
18002;DHT22;9126;48.160;17.130;2022-08-30T13:40:23;29.70;30.70
18002;DHT22;9126;48.160;17.130;2022-08-30T13:42:50;29.90;30.60
18002;DHT22;9126;48.160;17.130;2022-08-30T13:45:18;30.10;30.50
18002;DHT22;9126;48.160;17.130;2022-08-30T13:47:47;30.40;30.30
18002;DHT22;9126;48.160;17.130;2022-08-30T13:50:16;30.70;30.00
18002;DHT22;9126;48.160;17.130;2022-08-30T13:52:44;30.80;29.70
18002;DHT22;9126;48.160;17.130;2022-08-30T13:55:11;30.70;29.60
18002;DHT22;9126;48.160;17.130;2022-08-30T13:57:40;30.80;29.80
18002;DHT22;9126;48.160;17.130;2022-08-30T14:00:11;31.00;29.70
18002;DHT22;9126;48.160;17.130;2022-08-30T14:02:39;31.10;29.60
18002;DHT22;9126;48.160;17.130;2022-08-30T14:05:07;31.30;29.70
18002;DHT22;9126;48.160;17.130;2022-08-30T14:07:35;31.40;29.80
18002;DHT22;9126;48.160;17.130;2022-08-30T14:10:04;31.70;29.90
18002;DHT22;9126;48.160;17.130;2022-08-30T14:12:31;31.90;30.00
18002;DHT22;9126;48.160;17.130;2022-08-30T14:14:59;31.70;30.20
18002;DHT22;9126;48.160;17.130;2022-08-30T14:17:28;31.50;30.40
18002;DHT22;9126;48.160;17.130;2022-08-30T14:19:57;31.50;30.60
18002;DHT22;9126;48.160;17.130;2022-08-30T14:22:25;31.30;30.50
18002;DHT22;9126;48.160;17.130;2022-08-30T14:24:52;31.50;30.60
18002;DHT22;9126;48.160;17.130;2022-08-30T14:27:19;31.70;30.60
18002;DHT22;9126;48.160;17.130;2022-08-30T14:29:48;32.10;30.50
18002;DHT22;9126;48.160;17.130;2022-08-30T14:32:16;32.00;30.20
18002;DHT22;9126;48.160;17.130;2022-08-30T14:34:44;31.80;30.10
18002;DHT22;9126;48.160;17.130;2022-08-30T14:37:11;32.00;30.10
18002;DHT22;9126;48.160;17.130;2022-08-30T14:39:38;32.40;30.00
18002;DHT22;9126;48.160;17.130;2022-08-30T14:42:06;32.70;29.70
18002;DHT22;9126;48.160;17.130;2022-08-30T14:44:34;33.00;29.50
18002;DHT22;9126;48.160;17.130;2022-08-30T14:47:03;33.10;29.60
18002;DHT22;9126;48.160;17.130;2022-08-30T14:49:31;32.70;28.90
18002;DHT22;9126;48.160;17.130;2022-08-30T14:51:58;32.80;28.90
18002;DHT22;9126;48.160;17.130;2022-08-30T14:54:29;33.10;28.80
18002;DHT22;9126;48.160;17.130;2022-08-30T14:56:56;33.30;28.50
18002;DHT22;9126;48.160;17.130;2022-08-30T14:59:25;33.60;28.40
18002;DHT22;9126;48.160;17.130;2022-08-30T15:01:53;33.90;28.10
18002;DHT22;9126;48.160;17.130;2022-08-30T15:04:20;33.70;27.70
18002;DHT22;9126;48.160;17.130;2022-08-30T15:06:49;33.10;27.70
18002;DHT22;9126;48.160;17.130;2022-08-30T15:09:19;33.30;27.80
18002;DHT22;9126;48.160;17.130;2022-08-30T15:11:46;33.70;27.70
18002;DHT22;9126;48.160;17.130;2022-08-30T15:14:14;33.70;27.40
18002;DHT22;9126;48.160;17.130;2022-08-30T15:16:41;33.40;27.20
18002;DHT22;9126;48.160;17.130;2022-08-30T15:19:09;33.20;27.40
18002;DHT22;9126;48.160;17.130;2022-08-30T15:21:39;33.00;27.40
18002;DHT22;9126;48.160;17.130;2022-08-30T15:24:10;33.00;27.50
18002;DHT22;9126;48.160;17.130;2022-08-30T15:26:38;33.20;27.80
18002;DHT22;9126;48.160;17.130;2022-08-30T15:29:08;32.90;27.30
18002;DHT22;9126;48.160;17.130;2022-08-30T15:31:36;32.90;27.30
18002;DHT22;9126;48.160;17.130;2022-08-30T15:34:05;32.90;27.20
18002;DHT22;9126;48.160;17.130;2022-08-30T15:36:33;32.90;27.60
18002;DHT22;9126;48.160;17.130;2022-08-30T15:39:00;32.80;27.20
18002;DHT22;9126;48.160;17.130;2022-08-30T15:41:29;32.80;27.10
18002;DHT22;9126;48.160;17.130;2022-08-30T15:43:57;32.60;27.00
18002;DHT22;9126;48.160;17.130;2022-08-30T15:46:26;32.50;27.00
18002;DHT22;9126;48.160;17.130;2022-08-30T15:48:57;32.40;27.00
18002;DHT22;9126;48.160;17.130;2022-08-30T15:51:24;32.40;27.00
18002;DHT22;9126;48.160;17.130;2022-08-30T15:53:52;32.70;27.00
18002;DHT22;9126;48.160;17.130;2022-08-30T15:56:19;32.80;26.90
18002;DHT22;9126;48.160;17.130;2022-08-30T15:58:47;33.00;26.90
18002;DHT22;9126;48.160;17.130;2022-08-30T16:01:14;33.20;26.60
18002;DHT22;9126;48.160;17.130;2022-08-30T16:03:42;32.90;26.60
18002;DHT22;9126;48.160;17.130;2022-08-30T16:06:12;32.30;26.70